sensor_id;sensor_type;location;lat;lon;timestamp;P1;durP1;ratioP1;P2;durP2;ratioP2
37647;SDS011;23490;53.656;10.076;2023-07-02T00:01:44;4.78;;;2.15;;
37647;SDS011;23490;53.656;10.076;2023-07-02T00:04:10;4.68;;;2.47;;
37647;SDS011;23490;53.656;10.076;2023-07-02T00:06:38;4.90;;;2.30;;
37647;SDS011;23490;53.656;10.076;2023-07-02T00:09:08;8.95;;;2.53;;
37647;SDS011;23490;53.656;10.076;2023-07-02T00:11:35;3.38;;;2.05;;
37647;SDS011;23490;53.656;10.076;2023-07-02T00:14:00;5.32;;;2.10;;
37647;SDS011;23490;53.656;10.076;2023-07-02T00:16:25;6.28;;;2.10;;
37647;SDS011;23490;53.656;10.076;2023-07-02T00:18:51;6.10;;;2.38;;
37647;SDS011;23490;53.656;10.076;2023-07-02T00:21:20;5.93;;;2.33;;
37647;SDS011;23490;53.656;10.076;2023-07-02T00:23:49;9.23;;;2.72;;
37647;SDS011;23490;53.656;10.076;2023-07-02T00:26:14;7.05;;;2.95;;
37647;SDS011;23490;53.656;10.076;2023-07-02T00:28:39;4.63;;;2.38;;
37647;SDS011;23490;53.656;10.076;2023-07-02T00:31:05;7.28;;;2.60;;
37647;SDS011;23490;53.656;10.076;2023-07-02T00:33:31;4.97;;;2.67;;
37647;SDS011;23490;53.656;10.076;2023-07-02T00:35:57;6.35;;;2.97;;
37647;SDS011;23490;53.656;10.076;2023-07-02T00:38:23;7.28;;;3.08;;
37647;SDS011;23490;53.656;10.076;2023-07-02T00:40:48;10.27;;;3.00;;
37647;SDS011;23490;53.656;10.076;2023-07-02T00:43:14;9.35;;;3.65;;
37647;SDS011;23490;53.656;10.076;2023-07-02T00:45:39;4.75;;;2.25;;
37647;SDS011;23490;53.656;10.076;2023-07-02T00:48:05;9.10;;;2.70;;
37647;SDS011;23490;53.656;10.076;2023-07-02T00:50:31;4.88;;;2.80;;
37647;SDS011;23490;53.656;10.076;2023-07-02T00:52:57;6.22;;;2.30;;
37647;SDS011;23490;53.656;10.076;2023-07-02T00:55:22;8.65;;;2.60;;
37647;SDS011;23490;53.656;10.076;2023-07-02T00:57:48;6.60;;;2.80;;
37647;SDS011;23490;53.656;10.076;2023-07-02T01:00:14;6.13;;;2.30;;
37647;SDS011;23490;53.656;10.076;2023-07-02T01:02:41;6.22;;;2.88;;
37647;SDS011;23490;53.656;10.076;2023-07-02T01:05:18;4.65;;;2.60;;
37647;SDS011;23490;53.656;10.076;2023-07-02T01:07:49;6.13;;;2.63;;
37647;SDS011;23490;53.656;10.076;2023-07-02T01:10:14;7.20;;;2.40;;
37647;SDS011;23490;53.656;10.076;2023-07-02T01:12:40;5.80;;;2.67;;
37647;SDS011;23490;53.656;10.076;2023-07-02T01:15:06;6.65;;;3.10;;
37647;SDS011;23490;53.656;10.076;2023-07-02T01:17:34;5.43;;;2.78;;
37647;SDS011;23490;53.656;10.076;2023-07-02T01:20:06;6.07;;;2.72;;
37647;SDS011;23490;53.656;10.076;2023-07-02T01:22:34;4.97;;;2.45;;
37647;SDS011;23490;53.656;10.076;2023-07-02T01:24:59;7.13;;;2.67;;
37647;SDS011;23490;53.656;10.076;2023-07-02T01:27:27;7.07;;;2.80;;
37647;SDS011;23490;53.656;10.076;2023-07-02T01:29:54;5.97;;;2.22;;
37647;SDS011;23490;53.656;10.076;2023-07-02T01:32:22;5.60;;;2.53;;
37647;SDS011;23490;53.656;10.076;2023-07-02T01:34:51;8.50;;;3.20;;
37647;SDS011;23490;53.656;10.076;2023-07-02T01:37:18;5.65;;;2.38;;
37647;SDS011;23490;53.656;10.076;2023-07-02T01:39:44;6.30;;;2.83;;
37647;SDS011;23490;53.656;10.076;2023-07-02T01:42:16;7.95;;;2.75;;
37647;SDS011;23490;53.656;10.076;2023-07-02T01:44:43;5.35;;;2.90;;
37647;SDS011;23490;53.656;10.076;2023-07-02T01:47:12;6.55;;;2.65;;
37647;SDS011;23490;53.656;10.076;2023-07-02T01:49:38;8.55;;;3.10;;
37647;SDS011;23490;53.656;10.076;2023-07-02T01:52:03;7.10;;;3.40;;
37647;SDS011;23490;53.656;10.076;2023-07-02T01:54:30;8.60;;;3.03;;
37647;SDS011;23490;53.656;10.076;2023-07-02T01:56:57;11.65;;;2.83;;
37647;SDS011;23490;53.656;10.076;2023-07-02T01:59:24;8.00;;;2.80;;
37647;SDS011;23490;53.656;10.076;2023-07-02T02:01:50;5.15;;;3.00;;
37647;SDS011;23490;53.656;10.076;2023-07-02T02:04:15;7.88;;;3.10;;
37647;SDS011;23490;53.656;10.076;2023-07-02T02:06:41;7.72;;;2.50;;
37647;SDS011;23490;53.656;10.076;2023-07-02T02:09:09;6.72;;;2.75;;
37647;SDS011;23490;53.656;10.076;2023-07-02T02:11:37;8.60;;;3.67;;
37647;SDS011;23490;53.656;10.076;2023-07-02T02:14:04;7.05;;;2.85;;
37647;SDS011;23490;53.656;10.076;2023-07-02T02:16:30;8.15;;;2.85;;
37647;SDS011;23490;53.656;10.076;2023-07-02T02:18:57;8.30;;;3.30;;
37647;SDS011;23490;53.656;10.076;2023-07-02T02:21:24;8.48;;;3.13;;
37647;SDS011;23490;53.656;10.076;2023-07-02T02:23:51;5.35;;;2.97;;
37647;SDS011;23490;53.656;10.076;2023-07-02T02:26:17;5.63;;;3.20;;
37647;SDS011;23490;53.656;10.076;2023-07-02T02:28:42;12.88;;;3.45;;
37647;SDS011;23490;53.656;10.076;2023-07-02T02:31:09;7.28;;;3.17;;
37647;SDS011;23490;53.656;10.076;2023-07-02T02:33:34;7.05;;;3.40;;
37647;SDS011;23490;53.656;10.076;2023-07-02T02:36:01;6.55;;;3.28;;
37647;SDS011;23490;53.656;10.076;2023-07-02T02:38:27;5.55;;;3.08;;
37647;SDS011;23490;53.656;10.076;2023-07-02T02:40:52;7.82;;;3.22;;
37647;SDS011;23490;53.656;10.076;2023-07-02T02:43:18;7.15;;;3.10;;
37647;SDS011;23490;53.656;10.076;2023-07-02T02:45:43;5.40;;;2.90;;
37647;SDS011;23490;53.656;10.076;2023-07-02T02:48:09;7.97;;;3.63;;
37647;SDS011;23490;53.656;10.076;2023-07-02T02:50:34;7.82;;;3.15;;
37647;SDS011;23490;53.656;10.076;2023-07-02T02:52:59;7.70;;;2.85;;
37647;SDS011;23490;53.656;10.076;2023-07-02T02:55:25;9.48;;;3.47;;
37647;SDS011;23490;53.656;10.076;2023-07-02T02:57:51;6.13;;;3.20;;
37647;SDS011;23490;53.656;10.076;2023-07-02T03:00:16;6.32;;;2.80;;
37647;SDS011;23490;53.656;10.076;2023-07-02T03:02:42;4.63;;;3.10;;
37647;SDS011;23490;53.656;10.076;2023-07-02T03:05:07;8.43;;;3.60;;
37647;SDS011;23490;53.656;10.076;2023-07-02T03:07:33;7.75;;;3.08;;
37647;SDS011;23490;53.656;10.076;2023-07-02T03:09:58;6.03;;;3.50;;
37647;SDS011;23490;53.656;10.076;2023-07-02T03:12:28;8.00;;;3.70;;
37647;SDS011;23490;53.656;10.076;2023-07-02T03:14:53;8.43;;;3.20;;
37647;SDS011;23490;53.656;10.076;2023-07-02T03:17:20;10.63;;;4.05;;
37647;SDS011;23490;53.656;10.076;2023-07-02T03:19:49;7.85;;;3.67;;
37647;SDS011;23490;53.656;10.076;2023-07-02T03:22:15;6.53;;;3.70;;
37647;SDS011;23490;53.656;10.076;2023-07-02T03:24:41;9.30;;;3.22;;
37647;SDS011;23490;53.656;10.076;2023-07-02T03:27:06;7.72;;;3.28;;
37647;SDS011;23490;53.656;10.076;2023-07-02T03:29:33;6.55;;;3.00;;
37647;SDS011;23490;53.656;10.076;2023-07-02T03:31:59;7.80;;;3.38;;
37647;SDS011;23490;53.656;10.076;2023-07-02T03:34:25;6.05;;;3.20;;
37647;SDS011;23490;53.656;10.076;2023-07-02T03:36:51;8.25;;;3.55;;
37647;SDS011;23490;53.656;10.076;2023-07-02T03:39:16;7.47;;;3.17;;
37647;SDS011;23490;53.656;10.076;2023-07-02T03:41:43;8.80;;;3.08;;
37647;SDS011;23490;53.656;10.076;2023-07-02T03:44:09;7.97;;;3.30;;
37647;SDS011;23490;53.656;10.076;2023-07-02T03:46:35;10.52;;;4.22;;
37647;SDS011;23490;53.656;10.076;2023-07-02T03:49:02;6.32;;;3.35;;
37647;SDS011;23490;53.656;10.076;2023-07-02T03:51:28;12.23;;;3.97;;
37647;SDS011;23490;53.656;10.076;2023-07-02T03:53:54;7.65;;;3.75;;
37647;SDS011;23490;53.656;10.076;2023-07-02T03:56:19;12.18;;;4.35;;
37647;SDS011;23490;53.656;10.076;2023-07-02T03:58:45;11.43;;;4.13;;
37647;SDS011;23490;53.656;10.076;2023-07-02T04:01:10;9.40;;;3.95;;
37647;SDS011;23490;53.656;10.076;2023-07-02T04:03:36;10.63;;;4.20;;
37647;SDS011;23490;53.656;10.076;2023-07-02T04:06:02;12.05;;;3.33;;
37647;SDS011;23490;53.656;10.076;2023-07-02T04:08:27;11.32;;;4.00;;
37647;SDS011;23490;53.656;10.076;2023-07-02T04:10:55;14.20;;;4.25;;
37647;SDS011;23490;53.656;10.076;2023-07-02T04:13:21;9.98;;;4.03;;
37647;SDS011;23490;53.656;10.076;2023-07-02T04:15:46;7.85;;;3.72;;
37647;SDS011;23490;53.656;10.076;2023-07-02T04:18:18;11.50;;;3.80;;
37647;SDS011;23490;53.656;10.076;2023-07-02T04:20:44;17.60;;;4.28;;
37647;SDS011;23490;53.656;10.076;2023-07-02T04:23:10;11.60;;;4.03;;
37647;SDS011;23490;53.656;10.076;2023-07-02T04:25:35;16.75;;;4.72;;
37647;SDS011;23490;53.656;10.076;2023-07-02T04:28:00;14.05;;;4.75;;
37647;SDS011;23490;53.656;10.076;2023-07-02T04:30:26;15.90;;;4.43;;
37647;SDS011;23490;53.656;10.076;2023-07-02T04:32:51;13.90;;;4.30;;
37647;SDS011;23490;53.656;10.076;2023-07-02T04:35:17;13.07;;;4.22;;
37647;SDS011;23490;53.656;10.076;2023-07-02T04:37:44;10.38;;;3.53;;
37647;SDS011;23490;53.656;10.076;2023-07-02T04:40:10;8.35;;;3.97;;
37647;SDS011;23490;53.656;10.076;2023-07-02T04:42:36;9.75;;;3.92;;
37647;SDS011;23490;53.656;10.076;2023-07-02T04:45:05;14.10;;;4.32;;
37647;SDS011;23490;53.656;10.076;2023-07-02T04:47:32;19.83;;;4.77;;
37647;SDS011;23490;53.656;10.076;2023-07-02T04:49:58;10.82;;;4.00;;
37647;SDS011;23490;53.656;10.076;2023-07-02T04:52:23;9.52;;;3.70;;
37647;SDS011;23490;53.656;10.076;2023-07-02T04:54:49;9.95;;;3.45;;
37647;SDS011;23490;53.656;10.076;2023-07-02T04:57:14;14.10;;;3.80;;
37647;SDS011;23490;53.656;10.076;2023-07-02T04:59:43;12.40;;;4.18;;
37647;SDS011;23490;53.656;10.076;2023-07-02T05:02:08;10.35;;;4.05;;
37647;SDS011;23490;53.656;10.076;2023-07-02T05:04:35;13.00;;;4.13;;
37647;SDS011;23490;53.656;10.076;2023-07-02T05:07:01;13.10;;;4.22;;
37647;SDS011;23490;53.656;10.076;2023-07-02T05:09:26;15.70;;;4.93;;
37647;SDS011;23490;53.656;10.076;2023-07-02T05:11:51;11.82;;;4.03;;
37647;SDS011;23490;53.656;10.076;2023-07-02T05:14:20;10.55;;;3.65;;
37647;SDS011;23490;53.656;10.076;2023-07-02T05:16:46;11.57;;;4.30;;
37647;SDS011;23490;53.656;10.076;2023-07-02T05:19:11;14.07;;;4.57;;
37647;SDS011;23490;53.656;10.076;2023-07-02T05:21:37;12.82;;;5.47;;
37647;SDS011;23490;53.656;10.076;2023-07-02T05:24:02;13.60;;;4.82;;
37647;SDS011;23490;53.656;10.076;2023-07-02T05:26:28;14.18;;;4.88;;
37647;SDS011;23490;53.656;10.076;2023-07-02T05:28:53;13.18;;;4.38;;
37647;SDS011;23490;53.656;10.076;2023-07-02T05:31:18;14.18;;;4.70;;
37647;SDS011;23490;53.656;10.076;2023-07-02T05:33:44;11.32;;;4.30;;
37647;SDS011;23490;53.656;10.076;2023-07-02T05:36:09;17.27;;;5.65;;
37647;SDS011;23490;53.656;10.076;2023-07-02T05:38:35;9.50;;;4.10;;
37647;SDS011;23490;53.656;10.076;2023-07-02T05:41:01;16.75;;;4.72;;
37647;SDS011;23490;53.656;10.076;2023-07-02T05:43:28;16.75;;;5.72;;
37647;SDS011;23490;53.656;10.076;2023-07-02T05:45:53;14.32;;;4.97;;
37647;SDS011;23490;53.656;10.076;2023-07-02T05:48:19;20.38;;;5.28;;
37647;SDS011;23490;53.656;10.076;2023-07-02T05:50:45;15.88;;;4.75;;
37647;SDS011;23490;53.656;10.076;2023-07-02T05:53:12;15.20;;;5.28;;
37647;SDS011;23490;53.656;10.076;2023-07-02T05:55:38;18.30;;;5.18;;
37647;SDS011;23490;53.656;10.076;2023-07-02T05:58:03;11.25;;;4.28;;
37647;SDS011;23490;53.656;10.076;2023-07-02T06:00:29;15.32;;;5.10;;
37647;SDS011;23490;53.656;10.076;2023-07-02T06:02:54;13.73;;;4.65;;
37647;SDS011;23490;53.656;10.076;2023-07-02T06:05:20;13.45;;;5.10;;
37647;SDS011;23490;53.656;10.076;2023-07-02T06:07:45;17.27;;;5.80;;
37647;SDS011;23490;53.656;10.076;2023-07-02T06:10:11;11.75;;;4.05;;
37647;SDS011;23490;53.656;10.076;2023-07-02T06:12:36;24.80;;;6.38;;
37647;SDS011;23490;53.656;10.076;2023-07-02T06:15:03;14.55;;;4.75;;
37647;SDS011;23490;53.656;10.076;2023-07-02T06:17:29;19.20;;;5.80;;
37647;SDS011;23490;53.656;10.076;2023-07-02T06:19:56;20.92;;;5.53;;
37647;SDS011;23490;53.656;10.076;2023-07-02T06:22:23;16.80;;;5.15;;
37647;SDS011;23490;53.656;10.076;2023-07-02T06:24:48;14.68;;;5.18;;
37647;SDS011;23490;53.656;10.076;2023-07-02T06:27:14;14.52;;;4.43;;
37647;SDS011;23490;53.656;10.076;2023-07-02T06:29:39;13.90;;;5.50;;
37647;SDS011;23490;53.656;10.076;2023-07-02T06:32:05;12.68;;;5.22;;
37647;SDS011;23490;53.656;10.076;2023-07-02T06:34:31;18.42;;;5.35;;
37647;SDS011;23490;53.656;10.076;2023-07-02T06:36:56;18.60;;;5.55;;
37647;SDS011;23490;53.656;10.076;2023-07-02T06:39:21;16.30;;;5.38;;
37647;SDS011;23490;53.656;10.076;2023-07-02T06:41:47;13.23;;;5.00;;
37647;SDS011;23490;53.656;10.076;2023-07-02T06:44:12;15.60;;;4.88;;
37647;SDS011;23490;53.656;10.076;2023-07-02T06:46:37;14.32;;;5.25;;
37647;SDS011;23490;53.656;10.076;2023-07-02T06:49:03;17.08;;;5.25;;
37647;SDS011;23490;53.656;10.076;2023-07-02T06:51:28;15.38;;;5.15;;
37647;SDS011;23490;53.656;10.076;2023-07-02T06:53:54;16.15;;;5.10;;
37647;SDS011;23490;53.656;10.076;2023-07-02T06:56:21;32.10;;;7.05;;
37647;SDS011;23490;53.656;10.076;2023-07-02T06:58:46;15.75;;;5.82;;
37647;SDS011;23490;53.656;10.076;2023-07-02T07:01:13;15.25;;;4.90;;
37647;SDS011;23490;53.656;10.076;2023-07-02T07:03:38;14.38;;;5.30;;
37647;SDS011;23490;53.656;10.076;2023-07-02T07:06:05;19.60;;;4.75;;
37647;SDS011;23490;53.656;10.076;2023-07-02T07:08:31;17.17;;;5.15;;
37647;SDS011;23490;53.656;10.076;2023-07-02T07:10:57;19.75;;;6.00;;
37647;SDS011;23490;53.656;10.076;2023-07-02T07:13:25;17.75;;;6.70;;
37647;SDS011;23490;53.656;10.076;2023-07-02T07:15:50;16.02;;;5.45;;
37647;SDS011;23490;53.656;10.076;2023-07-02T07:18:16;16.33;;;5.38;;
37647;SDS011;23490;53.656;10.076;2023-07-02T07:20:44;15.02;;;5.00;;
37647;SDS011;23490;53.656;10.076;2023-07-02T07:23:09;13.82;;;5.30;;
37647;SDS011;23490;53.656;10.076;2023-07-02T07:25:35;11.05;;;5.60;;
37647;SDS011;23490;53.656;10.076;2023-07-02T07:28:01;19.13;;;6.65;;
37647;SDS011;23490;53.656;10.076;2023-07-02T07:30:26;11.88;;;5.05;;
37647;SDS011;23490;53.656;10.076;2023-07-02T07:32:55;18.38;;;6.20;;
37647;SDS011;23490;53.656;10.076;2023-07-02T07:35:21;14.82;;;5.00;;
37647;SDS011;23490;53.656;10.076;2023-07-02T07:37:48;17.75;;;6.15;;
37647;SDS011;23490;53.656;10.076;2023-07-02T07:40:16;17.42;;;6.05;;
37647;SDS011;23490;53.656;10.076;2023-07-02T07:42:41;18.13;;;5.32;;
37647;SDS011;23490;53.656;10.076;2023-07-02T07:45:11;17.42;;;5.78;;
37647;SDS011;23490;53.656;10.076;2023-07-02T07:47:36;17.80;;;6.57;;
37647;SDS011;23490;53.656;10.076;2023-07-02T07:50:02;16.35;;;5.13;;
37647;SDS011;23490;53.656;10.076;2023-07-02T07:52:39;12.88;;;4.78;;
37647;SDS011;23490;53.656;10.076;2023-07-02T07:55:13;14.00;;;4.85;;
37647;SDS011;23490;53.656;10.076;2023-07-02T07:57:41;17.77;;;5.15;;
37647;SDS011;23490;53.656;10.076;2023-07-02T08:00:12;20.98;;;5.85;;
37647;SDS011;23490;53.656;10.076;2023-07-02T08:02:38;14.50;;;5.50;;
37647;SDS011;23490;53.656;10.076;2023-07-02T08:05:04;11.68;;;4.15;;
37647;SDS011;23490;53.656;10.076;2023-07-02T08:07:33;14.48;;;5.28;;
37647;SDS011;23490;53.656;10.076;2023-07-02T08:10:00;15.25;;;4.65;;
37647;SDS011;23490;53.656;10.076;2023-07-02T08:12:27;11.57;;;4.35;;
37647;SDS011;23490;53.656;10.076;2023-07-02T08:14:54;11.27;;;4.47;;
37647;SDS011;23490;53.656;10.076;2023-07-02T08:17:21;13.63;;;4.78;;
37647;SDS011;23490;53.656;10.076;2023-07-02T08:19:47;11.57;;;4.35;;
37647;SDS011;23490;53.656;10.076;2023-07-02T08:22:12;12.32;;;4.57;;
37647;SDS011;23490;53.656;10.076;2023-07-02T08:24:38;12.18;;;3.97;;
37647;SDS011;23490;53.656;10.076;2023-07-02T08:27:04;11.60;;;4.57;;
37647;SDS011;23490;53.656;10.076;2023-07-02T08:29:30;8.60;;;4.00;;
37647;SDS011;23490;53.656;10.076;2023-07-02T08:31:57;13.57;;;4.80;;
37647;SDS011;23490;53.656;10.076;2023-07-02T08:34:23;11.50;;;3.92;;
37647;SDS011;23490;53.656;10.076;2023-07-02T08:36:48;11.02;;;4.10;;
37647;SDS011;23490;53.656;10.076;2023-07-02T08:39:14;14.60;;;4.53;;
37647;SDS011;23490;53.656;10.076;2023-07-02T08:41:43;9.30;;;3.80;;
37647;SDS011;23490;53.656;10.076;2023-07-02T08:44:12;13.10;;;4.22;;
37647;SDS011;23490;53.656;10.076;2023-07-02T08:46:39;12.27;;;4.63;;
37647;SDS011;23490;53.656;10.076;2023-07-02T08:49:07;9.52;;;4.43;;
37647;SDS011;23490;53.656;10.076;2023-07-02T08:51:32;12.27;;;3.83;;
37647;SDS011;23490;53.656;10.076;2023-07-02T08:53:58;10.77;;;4.00;;
37647;SDS011;23490;53.656;10.076;2023-07-02T08:56:23;15.02;;;4.65;;
37647;SDS011;23490;53.656;10.076;2023-07-02T08:58:49;12.95;;;4.47;;
37647;SDS011;23490;53.656;10.076;2023-07-02T09:01:15;9.98;;;4.15;;
37647;SDS011;23490;53.656;10.076;2023-07-02T09:03:42;13.25;;;4.72;;
37647;SDS011;23490;53.656;10.076;2023-07-02T09:06:08;18.10;;;4.72;;
37647;SDS011;23490;53.656;10.076;2023-07-02T09:08:35;10.20;;;3.67;;
37647;SDS011;23490;53.656;10.076;2023-07-02T09:11:08;9.15;;;3.55;;
37647;SDS011;23490;53.656;10.076;2023-07-02T09:13:41;9.18;;;3.58;;
37647;SDS011;23490;53.656;10.076;2023-07-02T09:18:58;7.65;;;3.42;;
37647;SDS011;23490;53.656;10.076;2023-07-02T09:21:27;11.30;;;3.50;;
37647;SDS011;23490;53.656;10.076;2023-07-02T09:24:11;8.52;;;3.28;;
37647;SDS011;23490;53.656;10.076;2023-07-02T09:29:18;9.80;;;3.78;;
37647;SDS011;23490;53.656;10.076;2023-07-02T09:31:48;7.30;;;2.75;;
37647;SDS011;23490;53.656;10.076;2023-07-02T09:34:13;7.78;;;3.03;;
37647;SDS011;23490;53.656;10.076;2023-07-02T09:36:40;10.20;;;2.97;;
37647;SDS011;23490;53.656;10.076;2023-07-02T09:39:11;7.88;;;2.72;;
37647;SDS011;23490;53.656;10.076;2023-07-02T09:41:44;8.90;;;3.05;;
37647;SDS011;23490;53.656;10.076;2023-07-02T09:44:14;18.50;;;4.07;;
37647;SDS011;23490;53.656;10.076;2023-07-02T09:46:41;9.40;;;3.13;;
37647;SDS011;23490;53.656;10.076;2023-07-02T09:49:18;11.57;;;3.83;;
37647;SDS011;23490;53.656;10.076;2023-07-02T09:51:45;10.55;;;3.90;;
37647;SDS011;23490;53.656;10.076;2023-07-02T09:54:11;10.80;;;3.38;;
37647;SDS011;23490;53.656;10.076;2023-07-02T09:56:37;10.82;;;3.35;;
37647;SDS011;23490;53.656;10.076;2023-07-02T09:59:03;7.35;;;3.30;;
37647;SDS011;23490;53.656;10.076;2023-07-02T10:01:28;8.25;;;3.58;;
37647;SDS011;23490;53.656;10.076;2023-07-02T10:03:54;11.70;;;4.40;;
37647;SDS011;23490;53.656;10.076;2023-07-02T10:06:19;7.65;;;3.08;;
37647;SDS011;23490;53.656;10.076;2023-07-02T10:08:54;9.48;;;3.22;;
37647;SDS011;23490;53.656;10.076;2023-07-02T10:11:21;10.13;;;3.50;;
37647;SDS011;23490;53.656;10.076;2023-07-02T10:13:58;8.15;;;2.60;;
37647;SDS011;23490;53.656;10.076;2023-07-02T10:16:25;7.97;;;2.72;;
37647;SDS011;23490;53.656;10.076;2023-07-02T10:18:52;9.10;;;2.60;;
37647;SDS011;23490;53.656;10.076;2023-07-02T10:21:19;7.78;;;2.45;;
37647;SDS011;23490;53.656;10.076;2023-07-02T10:23:44;8.88;;;2.30;;
37647;SDS011;23490;53.656;10.076;2023-07-02T10:26:14;6.97;;;2.65;;
37647;SDS011;23490;53.656;10.076;2023-07-02T10:28:59;6.72;;;2.53;;
37647;SDS011;23490;53.656;10.076;2023-07-02T10:31:26;5.60;;;2.47;;
37647;SDS011;23490;53.656;10.076;2023-07-02T10:33:51;6.45;;;2.38;;
37647;SDS011;23490;53.656;10.076;2023-07-02T10:36:17;8.85;;;2.88;;
37647;SDS011;23490;53.656;10.076;2023-07-02T10:38:46;11.15;;;3.10;;
37647;SDS011;23490;53.656;10.076;2023-07-02T10:41:12;9.13;;;2.67;;
37647;SDS011;23490;53.656;10.076;2023-07-02T10:43:38;7.55;;;2.65;;
37647;SDS011;23490;53.656;10.076;2023-07-02T10:46:04;7.93;;;2.88;;
37647;SDS011;23490;53.656;10.076;2023-07-02T10:48:30;5.90;;;2.55;;
37647;SDS011;23490;53.656;10.076;2023-07-02T10:50:56;7.95;;;2.28;;
37647;SDS011;23490;53.656;10.076;2023-07-02T10:53:21;7.28;;;2.08;;
37647;SDS011;23490;53.656;10.076;2023-07-02T10:55:54;8.77;;;2.65;;
37647;SDS011;23490;53.656;10.076;2023-07-02T10:58:21;9.60;;;3.22;;
37647;SDS011;23490;53.656;10.076;2023-07-02T11:00:48;6.72;;;2.55;;
37647;SDS011;23490;53.656;10.076;2023-07-02T11:03:18;5.87;;;2.70;;
37647;SDS011;23490;53.656;10.076;2023-07-02T11:05:45;5.45;;;2.67;;
37647;SDS011;23490;53.656;10.076;2023-07-02T11:08:11;7.10;;;1.83;;
37647;SDS011;23490;53.656;10.076;2023-07-02T11:10:37;6.55;;;1.98;;
37647;SDS011;23490;53.656;10.076;2023-07-02T11:13:13;5.70;;;2.10;;
37647;SDS011;23490;53.656;10.076;2023-07-02T11:15:39;6.63;;;2.22;;
37647;SDS011;23490;53.656;10.076;2023-07-02T11:18:13;7.50;;;2.20;;
37647;SDS011;23490;53.656;10.076;2023-07-02T11:20:41;6.53;;;2.53;;
37647;SDS011;23490;53.656;10.076;2023-07-02T11:26:03;5.47;;;2.45;;
37647;SDS011;23490;53.656;10.076;2023-07-02T11:28:30;7.10;;;2.15;;
37647;SDS011;23490;53.656;10.076;2023-07-02T11:30:57;7.82;;;2.40;;
37647;SDS011;23490;53.656;10.076;2023-07-02T11:33:36;7.47;;;2.30;;
37647;SDS011;23490;53.656;10.076;2023-07-02T11:36:03;7.03;;;2.33;;
37647;SDS011;23490;53.656;10.076;2023-07-02T11:38:29;7.60;;;2.35;;
37647;SDS011;23490;53.656;10.076;2023-07-02T11:40:54;6.97;;;2.50;;
37647;SDS011;23490;53.656;10.076;2023-07-02T11:43:20;8.20;;;2.60;;
37647;SDS011;23490;53.656;10.076;2023-07-02T11:45:45;7.85;;;2.25;;
37647;SDS011;23490;53.656;10.076;2023-07-02T11:48:11;8.10;;;2.30;;
37647;SDS011;23490;53.656;10.076;2023-07-02T11:50:38;4.70;;;2.10;;
37647;SDS011;23490;53.656;10.076;2023-07-02T11:53:03;10.02;;;2.17;;
37647;SDS011;23490;53.656;10.076;2023-07-02T11:55:28;7.65;;;2.50;;
37647;SDS011;23490;53.656;10.076;2023-07-02T11:57:54;6.07;;;1.90;;
37647;SDS011;23490;53.656;10.076;2023-07-02T12:00:22;7.18;;;1.80;;
37647;SDS011;23490;53.656;10.076;2023-07-02T12:02:48;8.95;;;3.00;;
37647;SDS011;23490;53.656;10.076;2023-07-02T12:05:13;6.40;;;2.03;;
37647;SDS011;23490;53.656;10.076;2023-07-02T12:07:39;8.43;;;2.63;;
37647;SDS011;23490;53.656;10.076;2023-07-02T12:10:04;4.82;;;1.65;;
37647;SDS011;23490;53.656;10.076;2023-07-02T12:12:30;6.38;;;2.10;;
37647;SDS011;23490;53.656;10.076;2023-07-02T12:14:56;6.03;;;2.33;;
37647;SDS011;23490;53.656;10.076;2023-07-02T12:17:21;10.70;;;2.58;;
37647;SDS011;23490;53.656;10.076;2023-07-02T12:19:47;10.80;;;2.50;;
37647;SDS011;23490;53.656;10.076;2023-07-02T12:22:12;7.13;;;2.28;;
37647;SDS011;23490;53.656;10.076;2023-07-02T12:24:42;6.00;;;1.73;;
37647;SDS011;23490;53.656;10.076;2023-07-02T12:27:07;8.52;;;2.33;;
37647;SDS011;23490;53.656;10.076;2023-07-02T12:29:35;9.68;;;2.85;;
37647;SDS011;23490;53.656;10.076;2023-07-02T12:32:01;11.13;;;5.50;;
37647;SDS011;23490;53.656;10.076;2023-07-02T12:34:28;7.25;;;1.90;;
37647;SDS011;23490;53.656;10.076;2023-07-02T12:36:55;9.73;;;2.53;;
37647;SDS011;23490;53.656;10.076;2023-07-02T12:39:21;5.35;;;1.98;;
37647;SDS011;23490;53.656;10.076;2023-07-02T12:41:46;6.93;;;2.30;;
37647;SDS011;23490;53.656;10.076;2023-07-02T12:44:12;6.50;;;1.90;;
37647;SDS011;23490;53.656;10.076;2023-07-02T12:46:37;6.90;;;2.22;;
37647;SDS011;23490;53.656;10.076;2023-07-02T12:49:06;5.97;;;1.92;;
37647;SDS011;23490;53.656;10.076;2023-07-02T12:51:33;5.15;;;1.80;;
37647;SDS011;23490;53.656;10.076;2023-07-02T12:54:00;5.82;;;1.83;;
37647;SDS011;23490;53.656;10.076;2023-07-02T12:56:31;5.82;;;2.05;;
37647;SDS011;23490;53.656;10.076;2023-07-02T12:58:57;6.53;;;1.77;;
37647;SDS011;23490;53.656;10.076;2023-07-02T13:01:22;5.43;;;2.05;;
37647;SDS011;23490;53.656;10.076;2023-07-02T13:03:49;7.63;;;2.17;;
37647;SDS011;23490;53.656;10.076;2023-07-02T13:06:16;5.50;;;2.30;;
37647;SDS011;23490;53.656;10.076;2023-07-02T13:08:42;5.93;;;1.92;;
37647;SDS011;23490;53.656;10.076;2023-07-02T13:11:08;5.18;;;1.45;;
37647;SDS011;23490;53.656;10.076;2023-07-02T13:13:38;4.90;;;1.13;;
37647;SDS011;23490;53.656;10.076;2023-07-02T13:16:07;6.80;;;2.03;;
37647;SDS011;23490;53.656;10.076;2023-07-02T13:18:33;6.97;;;1.50;;
37647;SDS011;23490;53.656;10.076;2023-07-02T13:20:58;4.95;;;1.92;;
37647;SDS011;23490;53.656;10.076;2023-07-02T13:23:24;3.45;;;1.20;;
37647;SDS011;23490;53.656;10.076;2023-07-02T13:25:50;5.93;;;1.20;;
37647;SDS011;23490;53.656;10.076;2023-07-02T13:28:15;7.38;;;1.27;;
37647;SDS011;23490;53.656;10.076;2023-07-02T13:30:41;6.85;;;1.33;;
37647;SDS011;23490;53.656;10.076;2023-07-02T13:33:14;7.15;;;1.63;;
37647;SDS011;23490;53.656;10.076;2023-07-02T13:35:40;3.97;;;1.30;;
37647;SDS011;23490;53.656;10.076;2023-07-02T13:38:06;5.60;;;1.40;;
37647;SDS011;23490;53.656;10.076;2023-07-02T13:40:31;7.53;;;1.52;;
37647;SDS011;23490;53.656;10.076;2023-07-02T13:42:57;5.30;;;1.92;;
37647;SDS011;23490;53.656;10.076;2023-07-02T13:45:22;5.10;;;1.38;;
37647;SDS011;23490;53.656;10.076;2023-07-02T13:47:48;6.47;;;2.25;;
37647;SDS011;23490;53.656;10.076;2023-07-02T13:50:13;8.65;;;1.45;;
37647;SDS011;23490;53.656;10.076;2023-07-02T13:52:38;14.68;;;2.50;;
37647;SDS011;23490;53.656;10.076;2023-07-02T13:55:04;8.10;;;1.55;;
37647;SDS011;23490;53.656;10.076;2023-07-02T13:57:32;4.95;;;1.15;;
37647;SDS011;23490;53.656;10.076;2023-07-02T13:59:58;3.22;;;1.48;;
37647;SDS011;23490;53.656;10.076;2023-07-02T14:02:23;4.72;;;1.42;;
37647;SDS011;23490;53.656;10.076;2023-07-02T14:04:49;4.90;;;1.20;;
37647;SDS011;23490;53.656;10.076;2023-07-02T14:07:15;4.57;;;1.50;;
37647;SDS011;23490;53.656;10.076;2023-07-02T14:09:40;5.10;;;1.63;;
37647;SDS011;23490;53.656;10.076;2023-07-02T14:12:08;5.07;;;1.58;;
37647;SDS011;23490;53.656;10.076;2023-07-02T14:14:34;6.85;;;1.60;;
37647;SDS011;23490;53.656;10.076;2023-07-02T14:16:59;4.72;;;1.50;;
37647;SDS011;23490;53.656;10.076;2023-07-02T14:19:25;6.03;;;1.48;;
37647;SDS011;23490;53.656;10.076;2023-07-02T14:21:50;3.85;;;1.52;;
37647;SDS011;23490;53.656;10.076;2023-07-02T14:24:15;5.95;;;1.42;;
37647;SDS011;23490;53.656;10.076;2023-07-02T14:26:42;6.70;;;1.65;;
37647;SDS011;23490;53.656;10.076;2023-07-02T14:29:09;4.72;;;1.50;;
37647;SDS011;23490;53.656;10.076;2023-07-02T14:31:36;5.13;;;1.77;;
37647;SDS011;23490;53.656;10.076;2023-07-02T14:34:01;3.55;;;1.20;;